createdAt,value
2022-12-27T00:00:08.534Z,29.65
2022-12-27T00:02:55.840Z,27.98
2022-12-27T00:05:23.822Z,30.55
2022-12-27T00:07:51.916Z,26.45
2022-12-27T00:10:20.469Z,31.23
2022-12-27T00:12:47.432Z,27.27
2022-12-27T00:15:15.227Z,29.95
2022-12-27T00:17:42.246Z,30.08
2022-12-27T00:20:11.603Z,24.38
2022-12-27T00:22:39.525Z,27.45
2022-12-27T00:25:08.818Z,29.73
2022-12-27T00:27:36.420Z,29.13
2022-12-27T00:30:04.978Z,24.38
2022-12-27T00:32:32.096Z,24.05
2022-12-27T00:34:59.421Z,25.15
2022-12-27T00:37:26.603Z,23.00
2022-12-27T00:39:54.430Z,25.88
2022-12-27T00:42:22.125Z,27.20
2022-12-27T00:44:49.523Z,28.60
2022-12-27T00:47:16.472Z,28.70
2022-12-27T00:49:45.548Z,29.85
2022-12-27T00:52:12.782Z,23.75
2022-12-27T00:54:41.532Z,24.73
2022-12-27T00:57:09.006Z,25.42
2022-12-27T00:59:36.345Z,26.05
2022-12-27T01:02:03.644Z,28.25
2022-12-27T01:04:31.162Z,26.73
2022-12-27T01:06:58.203Z,29.23
2022-12-27T01:09:25.608Z,26.50
2022-12-27T01:11:53.578Z,24.25
2022-12-27T01:14:21.349Z,28.45
2022-12-27T01:16:49.409Z,26.92
2022-12-27T01:19:17.052Z,29.88
2022-12-27T01:21:44.451Z,28.95
2022-12-27T01:24:12.473Z,26.92
2022-12-27T01:26:39.837Z,25.67
2022-12-27T01:29:07.674Z,23.75
2022-12-27T01:31:36.066Z,32.30
2022-12-27T01:34:03.534Z,28.23
2022-12-27T01:36:31.900Z,24.90
2022-12-27T01:39:00.281Z,28.08
2022-12-27T01:42:01.966Z,28.52
2022-12-27T01:44:43.041Z,27.38
2022-12-27T01:47:13.153Z,28.45
2022-12-27T01:50:12.753Z,27.90
2022-12-27T01:52:42.334Z,25.27
2022-12-27T01:55:24.799Z,30.77
2022-12-27T01:57:57.659Z,25.48
2022-12-27T02:00:25.291Z,24.92
2022-12-27T02:02:53.052Z,25.45
2022-12-27T02:05:24.440Z,23.95
2022-12-27T02:08:26.286Z,27.15
2022-12-27T02:10:55.048Z,26.30
2022-12-27T02:13:22.791Z,30.23
2022-12-27T02:15:51.494Z,29.75
2022-12-27T02:18:19.329Z,29.23
2022-12-27T02:21:44.842Z,29.75
2022-12-27T02:24:49.768Z,33.17
2022-12-27T02:27:49.681Z,28.20
2022-12-27T02:30:16.913Z,31.67
2022-12-27T02:33:06.731Z,29.80
2022-12-27T02:35:59.798Z,27.17
2022-12-27T02:38:38.474Z,23.42
2022-12-27T02:41:26.741Z,28.63
2022-12-27T02:44:16.946Z,25.35
2022-12-27T02:47:03.922Z,29.90
2022-12-27T02:49:53.027Z,24.55
2022-12-27T02:53:08.472Z,24.63
2022-12-27T02:56:16.634Z,32.72
2022-12-27T02:58:55.584Z,30.45
2022-12-27T03:02:11.603Z,27.15
2022-12-27T03:05:04.820Z,27.83
2022-12-27T03:07:49.591Z,31.65
2022-12-27T03:11:01.954Z,25.63
2022-12-27T03:14:07.950Z,29.95
2022-12-27T03:16:41.657Z,25.67
2022-12-27T03:22:43.959Z,26.75
2022-12-27T03:25:28.307Z,29.88
2022-12-27T03:28:20.614Z,28.80
2022-12-27T03:31:14.090Z,19.08
2022-12-27T03:33:45.388Z,16.55
2022-12-27T03:36:37.574Z,21.55
2022-12-27T03:39:26.257Z,29.70
2022-12-27T03:42:38.952Z,28.58
2022-12-27T03:45:06.676Z,20.27
2022-12-27T03:47:50.128Z,24.80
2022-12-27T03:50:25.954Z,31.65
2022-12-27T03:55:32.992Z,26.83
2022-12-27T03:58:01.188Z,27.92
2022-12-27T04:00:29.534Z,28.98
2022-12-27T04:02:57.525Z,27.30
2022-12-27T04:05:24.807Z,29.23
2022-12-27T04:08:11.526Z,25.65
2022-12-27T04:10:57.389Z,30.05
2022-12-27T04:13:43.928Z,28.80
2022-12-27T04:16:29.589Z,33.70
2022-12-27T04:19:15.740Z,35.17
2022-12-27T04:22:01.625Z,26.45
2022-12-27T04:24:47.877Z,38.80
2022-12-27T04:27:33.840Z,31.80
2022-12-27T04:30:20.983Z,31.63
2022-12-27T04:36:06.374Z,35.70
2022-12-27T04:38:34.479Z,28.73
2022-12-27T04:41:19.932Z,28.05
2022-12-27T04:44:05.961Z,29.60
2022-12-27T04:46:51.859Z,29.15
2022-12-27T04:49:44.309Z,24.88
2022-12-27T04:52:33.775Z,24.52
2022-12-27T04:55:12.640Z,30.23
2022-12-27T04:57:40.232Z,18.38
2022-12-27T05:00:27.124Z,34.97
2022-12-27T05:02:55.162Z,29.25
2022-12-27T05:05:24.629Z,29.58
2022-12-27T05:08:11.660Z,32.35
2022-12-27T05:11:01.530Z,31.27
2022-12-27T05:13:48.473Z,35.28
2022-12-27T05:16:17.335Z,33.63
2022-12-27T05:18:44.926Z,34.28
2022-12-27T05:21:18.274Z,32.75
2022-12-27T05:24:05.840Z,32.45
2022-12-27T05:26:34.429Z,37.25
2022-12-27T05:29:02.132Z,32.92
2022-12-27T05:31:30.171Z,31.63
2022-12-27T05:33:59.411Z,32.42
2022-12-27T05:36:28.495Z,25.90
2022-12-27T05:38:56.069Z,33.88
2022-12-27T05:44:07.456Z,33.47
2022-12-27T05:46:35.889Z,25.88
2022-12-27T05:49:03.568Z,32.78
2022-12-27T05:51:30.963Z,31.08
2022-12-27T05:53:57.952Z,32.90
2022-12-27T05:56:26.436Z,32.40
2022-12-27T05:58:54.489Z,34.13
2022-12-27T06:01:22.197Z,33.88
2022-12-27T06:03:49.497Z,36.75
2022-12-27T06:06:16.997Z,32.03
2022-12-27T06:08:44.191Z,31.08
2022-12-27T06:11:17.395Z,29.77
2022-12-27T06:13:52.190Z,29.10
2022-12-27T06:16:21.533Z,28.25
2022-12-27T06:18:48.891Z,33.50
2022-12-27T06:21:21.791Z,31.67
2022-12-27T06:23:49.731Z,34.90
2022-12-27T06:26:27.983Z,32.33
2022-12-27T06:28:57.087Z,32.03
2022-12-27T06:31:26.526Z,31.50
2022-12-27T06:33:54.229Z,34.15
2022-12-27T06:36:23.949Z,37.20
2022-12-27T06:38:51.638Z,31.52
2022-12-27T06:41:22.780Z,30.83
2022-12-27T06:46:45.075Z,33.78
2022-12-27T06:49:12.275Z,35.92
2022-12-27T06:51:59.501Z,31.38
2022-12-27T06:54:31.199Z,35.85
2022-12-27T06:57:00.723Z,36.35
2022-12-27T06:59:29.361Z,34.92
2022-12-27T07:01:56.521Z,36.63
2022-12-27T07:04:24.268Z,30.35
2022-12-27T07:06:51.215Z,37.58
2022-12-27T07:09:18.625Z,30.00
2022-12-27T07:11:46.021Z,32.20
2022-12-27T07:14:13.455Z,33.13
2022-12-27T07:16:48.201Z,38.25
2022-12-27T07:19:21.410Z,34.03
2022-12-27T07:22:01.759Z,37.42
2022-12-27T07:24:31.031Z,30.75
2022-12-27T07:26:58.119Z,29.48
2022-12-27T07:29:25.989Z,35.00
2022-12-27T07:31:53.119Z,31.77
2022-12-27T07:34:23.731Z,36.35
2022-12-27T07:36:55.231Z,26.88
2022-12-27T07:39:28.816Z,28.48
2022-12-27T07:41:55.954Z,29.65
2022-12-27T07:44:23.497Z,52.38
2022-12-27T07:46:51.401Z,38.53
2022-12-27T07:49:34.469Z,35.25
2022-12-27T07:52:01.545Z,32.25
2022-12-27T07:54:30.576Z,33.97
2022-12-27T07:57:00.277Z,32.65
2022-12-27T07:59:32.789Z,41.33
2022-12-27T08:02:06.304Z,33.67
2022-12-27T08:04:37.427Z,35.10
2022-12-27T08:07:08.232Z,34.40
2022-12-27T08:09:39.334Z,34.28
2022-12-27T08:15:06.575Z,28.38
2022-12-27T08:20:29.629Z,34.30
2022-12-27T08:23:01.129Z,32.83
2022-12-27T08:25:29.370Z,32.08
2022-12-27T08:28:07.966Z,36.70
2022-12-27T08:30:35.942Z,28.40
2022-12-27T08:33:14.089Z,37.95
2022-12-27T08:35:53.116Z,32.25
2022-12-27T08:38:26.437Z,37.45
2022-12-27T08:40:55.941Z,35.78
2022-12-27T08:43:23.921Z,34.40
2022-12-27T08:45:59.679Z,33.60
2022-12-27T08:48:29.354Z,38.40
2022-12-27T08:50:58.673Z,38.05
2022-12-27T08:53:26.916Z,35.10
2022-12-27T08:55:59.316Z,37.50
2022-12-27T08:58:33.853Z,33.47
2022-12-27T09:01:09.091Z,33.95
2022-12-27T09:06:44.128Z,35.28
2022-12-27T09:09:12.201Z,37.20
2022-12-27T09:17:33.085Z,30.70
2022-12-27T09:20:20.704Z,31.50
2022-12-27T09:22:48.223Z,30.95
2022-12-27T09:25:15.560Z,34.15
2022-12-27T09:27:43.077Z,40.80
2022-12-27T09:30:10.460Z,35.60
2022-12-27T09:32:38.207Z,35.45
2022-12-27T09:35:20.015Z,32.30
2022-12-27T09:40:30.974Z,33.65
2022-12-27T09:43:22.219Z,31.35
2022-12-27T09:45:58.085Z,34.28
2022-12-27T09:48:36.471Z,38.92
2022-12-27T09:51:11.715Z,37.70
2022-12-27T09:54:07.367Z,39.72
2022-12-27T09:57:09.560Z,40.20
2022-12-27T09:59:34.019Z,44.92
2022-12-27T10:02:01.398Z,49.15
2022-12-27T10:05:09.713Z,53.78
2022-12-27T10:07:28.365Z,57.42
2022-12-27T10:10:26.703Z,73.68
2022-12-27T10:13:03.939Z,58.67
2022-12-27T10:15:40.381Z,76.82
2022-12-27T10:18:21.745Z,62.95
2022-12-27T10:21:15.243Z,56.53
2022-12-27T10:23:53.115Z,60.85
2022-12-27T10:28:57.142Z,61.92
2022-12-27T10:31:26.479Z,64.07
2022-12-27T10:33:53.922Z,78.20
2022-12-27T10:36:31.054Z,63.75
2022-12-27T10:38:58.252Z,66.00
2022-12-27T10:41:32.133Z,58.55
2022-12-27T10:43:59.292Z,54.63
2022-12-27T10:46:33.088Z,53.78
2022-12-27T10:49:21.032Z,52.53
2022-12-27T10:51:51.501Z,50.75
2022-12-27T10:54:23.829Z,45.78
2022-12-27T10:56:51.445Z,49.13
2022-12-27T10:59:18.400Z,41.55
2022-12-27T11:01:51.382Z,46.03
2022-12-27T11:07:22.581Z,43.08
2022-12-27T11:09:51.355Z,45.85
2022-12-27T11:15:00.080Z,44.65
2022-12-27T11:17:51.649Z,42.65
2022-12-27T11:20:55.663Z,42.00
2022-12-27T11:23:25.844Z,42.03
2022-12-27T11:25:59.233Z,46.60
2022-12-27T11:28:42.058Z,49.35
2022-12-27T11:31:18.439Z,44.13
2022-12-27T11:34:19.469Z,44.42
2022-12-27T11:36:50.136Z,52.60
2022-12-27T11:39:39.406Z,47.22
2022-12-27T11:42:18.012Z,48.67
2022-12-27T11:45:16.521Z,43.90
2022-12-27T11:47:50.242Z,39.45
2022-12-27T11:50:42.821Z,39.38
2022-12-27T12:00:22.563Z,45.03
2022-12-27T12:03:23.595Z,42.80
2022-12-27T12:05:56.605Z,41.80
2022-12-27T12:08:40.593Z,45.17
2022-12-27T12:11:18.048Z,51.22
2022-12-27T12:14:04.277Z,57.28
2022-12-27T12:16:34.835Z,46.05
2022-12-27T12:19:19.999Z,47.22
2022-12-27T12:22:16.816Z,53.42
2022-12-27T12:25:01.965Z,60.40
2022-12-27T12:27:47.624Z,54.42
2022-12-27T12:30:38.030Z,62.95
2022-12-27T12:33:12.433Z,80.88
2022-12-27T12:36:16.680Z,75.47
2022-12-27T12:39:02.470Z,79.18
2022-12-27T12:42:00.341Z,89.78
2022-12-27T12:44:58.606Z,92.05
2022-12-27T12:47:28.642Z,82.22
2022-12-27T12:50:13.732Z,82.25
2022-12-27T12:53:02.623Z,64.00
2022-12-27T12:56:05.537Z,75.07
2022-12-27T12:58:49.092Z,85.97
2022-12-27T13:01:58.072Z,81.60
2022-12-27T13:04:37.308Z,86.60
2022-12-27T13:07:37.754Z,68.35
2022-12-27T13:10:45.209Z,96.53
2022-12-27T13:13:23.561Z,88.88
2022-12-27T13:16:12.545Z,86.55
2022-12-27T13:19:20.836Z,94.95
2022-12-27T13:21:59.865Z,82.07
2022-12-27T13:25:13.827Z,90.95
2022-12-27T13:28:06.524Z,86.60
2022-12-27T13:30:58.761Z,86.30
2022-12-27T13:33:58.289Z,86.50
2022-12-27T13:36:35.027Z,86.38
2022-12-27T13:39:24.255Z,92.43
2022-12-27T13:42:13.433Z,88.10
2022-12-27T13:44:55.721Z,83.93
2022-12-27T13:47:56.001Z,81.90
2022-12-27T13:53:54.310Z,78.18
2022-12-27T13:59:47.365Z,70.82
2022-12-27T14:02:21.185Z,75.72
2022-12-27T14:05:00.817Z,90.57
2022-12-27T14:08:19.194Z,80.13
2022-12-27T14:11:01.270Z,95.68
2022-12-27T14:19:57.422Z,58.42
2022-12-27T14:22:53.801Z,68.20
2022-12-27T14:31:17.441Z,49.95
2022-12-27T14:33:56.903Z,39.88
2022-12-27T14:36:42.720Z,40.28
2022-12-27T14:39:32.160Z,45.90
2022-12-27T14:42:33.122Z,42.67
2022-12-27T14:45:56.992Z,44.60
2022-12-27T14:52:00.035Z,46.15
2022-12-27T14:54:34.102Z,41.45
2022-12-27T14:57:37.357Z,41.25
2022-12-27T15:00:25.512Z,34.40
2022-12-27T15:03:19.339Z,34.72
2022-12-27T15:06:22.566Z,31.10
2022-12-27T15:09:20.221Z,31.00
2022-12-27T15:12:37.966Z,29.13
2022-12-27T15:15:23.976Z,29.02
2022-12-27T15:21:27.640Z,30.63
2022-12-27T15:24:07.267Z,27.40
2022-12-27T15:26:49.367Z,26.50
2022-12-27T15:29:43.289Z,22.88
2022-12-27T15:38:54.793Z,25.45
2022-12-27T15:41:49.819Z,24.58
2022-12-27T15:44:25.678Z,23.02
2022-12-27T15:46:59.352Z,21.67
2022-12-27T15:49:35.583Z,18.98
2022-12-27T15:52:17.552Z,18.83
2022-12-27T15:55:09.055Z,14.80
2022-12-27T15:57:45.409Z,15.95
2022-12-27T16:00:28.753Z,15.80
2022-12-27T16:05:57.145Z,15.25
2022-12-27T16:08:27.325Z,18.27
2022-12-27T16:10:56.383Z,17.80
2022-12-27T16:16:00.342Z,14.90
2022-12-27T16:18:33.583Z,16.08
2022-12-27T16:21:12.519Z,19.02
2022-12-27T16:23:48.766Z,12.48
2022-12-27T16:26:18.118Z,17.15
2022-12-27T16:29:18.542Z,13.43
2022-12-27T16:32:02.907Z,10.07
2022-12-27T16:34:32.350Z,14.57
2022-12-27T16:37:05.169Z,12.25
2022-12-27T16:40:08.423Z,16.40
2022-12-27T16:42:57.216Z,14.73
2022-12-27T16:45:40.827Z,13.85
2022-12-27T16:48:44.444Z,10.00
2022-12-27T16:51:51.976Z,16.60
2022-12-27T16:55:00.634Z,11.18
2022-12-27T16:57:45.487Z,13.73
2022-12-27T17:00:43.502Z,12.95
2022-12-27T17:03:41.251Z,13.23
2022-12-27T17:06:31.866Z,9.35
2022-12-27T17:09:09.374Z,12.68
2022-12-27T17:11:41.498Z,15.18
2022-12-27T17:17:19.114Z,13.77
2022-12-27T17:20:01.527Z,13.02
2022-12-27T17:22:35.074Z,12.48
2022-12-27T17:25:23.028Z,12.80
2022-12-27T17:28:06.036Z,13.10
2022-12-27T17:31:07.308Z,13.77
2022-12-27T17:33:43.739Z,9.75
2022-12-27T17:36:37.339Z,8.18
2022-12-27T17:39:13.838Z,9.32
2022-12-27T17:42:33.322Z,10.52
2022-12-27T17:45:08.101Z,11.63
2022-12-27T17:47:57.130Z,11.80
2022-12-27T17:50:27.182Z,11.13
2022-12-27T17:53:32.673Z,9.52
2022-12-27T17:59:36.922Z,9.23
2022-12-27T18:02:16.910Z,6.93
2022-12-27T18:04:51.669Z,9.02
2022-12-27T18:07:29.746Z,6.10
2022-12-27T18:10:24.659Z,7.43
2022-12-27T18:12:56.494Z,6.22
2022-12-27T18:15:38.527Z,6.43
2022-12-27T18:18:09.706Z,7.20
2022-12-27T18:20:44.667Z,3.63
2022-12-27T18:23:19.310Z,5.80
2022-12-27T18:25:54.948Z,7.25
2022-12-27T18:28:33.802Z,3.65
2022-12-27T18:31:36.531Z,4.88
2022-12-27T18:34:37.762Z,4.93
2022-12-27T18:37:10.966Z,3.33
2022-12-27T18:39:52.213Z,6.80
2022-12-27T18:45:43.997Z,5.20
2022-12-27T18:48:19.836Z,3.85
2022-12-27T18:50:59.850Z,6.35
2022-12-27T18:53:51.538Z,5.05
2022-12-27T18:56:34.741Z,4.47
2022-12-27T18:59:31.086Z,7.47
2022-12-27T19:02:01.507Z,4.25
2022-12-27T19:04:31.814Z,4.30
2022-12-27T19:07:10.907Z,4.80
2022-12-27T19:09:42.667Z,4.72
2022-12-27T19:12:27.684Z,4.60
2022-12-27T19:14:55.115Z,3.97
2022-12-27T19:17:43.352Z,3.42
2022-12-27T19:20:32.526Z,4.30
2022-12-27T19:23:30.455Z,5.60
2022-12-27T19:29:24.559Z,8.40
2022-12-27T19:31:58.636Z,3.53
2022-12-27T19:34:43.263Z,5.22
2022-12-27T19:37:13.720Z,5.80
2022-12-27T19:39:41.801Z,5.18
2022-12-27T19:42:19.080Z,4.28
2022-12-27T19:44:47.511Z,6.28
2022-12-27T19:47:14.935Z,4.10
2022-12-27T19:49:43.955Z,6.20
2022-12-27T19:55:19.687Z,7.50
2022-12-27T19:57:47.900Z,3.33
2022-12-27T20:00:18.471Z,10.43
2022-12-27T20:02:49.861Z,7.50
2022-12-27T20:06:14.731Z,4.40
2022-12-27T20:08:26.307Z,6.53
2022-12-27T20:11:00.564Z,6.95
2022-12-27T20:13:37.009Z,7.38
2022-12-27T20:16:05.606Z,7.60
2022-12-27T20:21:23.666Z,9.13
2022-12-27T20:24:02.941Z,4.78
2022-12-27T20:26:59.389Z,8.93
2022-12-27T20:29:27.675Z,3.70
2022-12-27T20:31:57.087Z,4.63
2022-12-27T20:35:07.230Z,7.47
2022-12-27T20:37:38.060Z,5.05
2022-12-27T20:40:24.895Z,6.45
2022-12-27T20:42:56.223Z,7.22
2022-12-27T20:48:28.631Z,4.00
2022-12-27T20:50:56.703Z,5.40
2022-12-27T20:53:38.861Z,5.40
2022-12-27T20:56:09.677Z,3.63
2022-12-27T20:58:40.202Z,9.25
2022-12-27T21:01:12.855Z,6.30
2022-12-27T21:03:40.435Z,4.45
2022-12-27T21:06:12.094Z,9.30
2022-12-27T21:08:46.464Z,6.50
2022-12-27T21:11:21.565Z,9.00
2022-12-27T21:13:49.208Z,9.93
2022-12-27T21:16:24.138Z,6.82
2022-12-27T21:18:55.555Z,10.13
2022-12-27T21:21:28.696Z,7.05
2022-12-27T21:23:58.922Z,7.25
2022-12-27T21:26:54.587Z,2.80
2022-12-27T21:29:25.329Z,6.50
2022-12-27T21:31:53.548Z,10.68
2022-12-27T21:34:21.422Z,9.65
2022-12-27T21:36:54.369Z,10.02
2022-12-27T21:39:22.028Z,10.95
2022-12-27T21:41:49.385Z,8.15
2022-12-27T21:44:16.709Z,8.52
2022-12-27T21:46:45.583Z,7.72
2022-12-27T21:49:17.152Z,5.18
2022-12-27T21:51:45.048Z,5.95
2022-12-27T21:54:14.204Z,4.72
2022-12-27T21:56:43.817Z,6.35
2022-12-27T21:59:12.220Z,3.55
2022-12-27T22:01:50.111Z,3.95
2022-12-27T22:04:23.944Z,4.43
2022-12-27T22:06:51.621Z,4.30
2022-12-27T22:09:19.523Z,3.70
2022-12-27T22:11:49.714Z,5.70
2022-12-27T22:16:50.918Z,5.25
2022-12-27T22:19:18.341Z,8.73
2022-12-27T22:21:46.312Z,7.07
2022-12-27T22:24:19.599Z,6.28
2022-12-27T22:26:48.788Z,14.32
2022-12-27T22:29:15.872Z,9.27
2022-12-27T22:31:44.483Z,6.70
2022-12-27T22:36:56.926Z,3.95
2022-12-27T22:39:29.404Z,5.32
2022-12-27T22:41:57.079Z,5.75
2022-12-27T22:49:41.549Z,4.65
2022-12-27T22:52:08.927Z,3.63
2022-12-27T22:55:03.284Z,6.03
2022-12-27T22:57:23.841Z,6.72
2022-12-27T22:59:56.503Z,6.22
2022-12-27T23:02:23.982Z,4.85
2022-12-27T23:04:51.123Z,8.07
2022-12-27T23:07:20.342Z,6.38
2022-12-27T23:09:47.626Z,3.42
2022-12-27T23:12:15.499Z,6.15
2022-12-27T23:14:43.307Z,5.38
2022-12-27T23:17:10.831Z,3.78
2022-12-27T23:19:37.851Z,3.80
2022-12-27T23:22:05.801Z,4.97
2022-12-27T23:24:33.409Z,3.85
2022-12-27T23:27:01.499Z,4.35
2022-12-27T23:29:28.842Z,4.13
2022-12-27T23:31:58.761Z,5.68
2022-12-27T23:34:29.375Z,6.32
2022-12-27T23:37:00.178Z,6.13
2022-12-27T23:39:27.396Z,5.75
2022-12-27T23:41:54.823Z,6.85
2022-12-27T23:44:33.211Z,8.60
2022-12-27T23:47:11.324Z,5.18
2022-12-27T23:49:38.385Z,4.07
2022-12-27T23:52:05.939Z,3.53
2022-12-27T23:54:33.043Z,7.97
2022-12-27T23:57:19.525Z,6.82
2022-12-27T23:59:49.455Z,6.18
